sensor_id;sensor_type;location;lat;lon;timestamp;pressure;altitude;pressure_sealevel;temperature;humidity
60240;BME280;46102;39.012;-7.064;2023-04-05T00:00:04;98270.81;;;15.70;25.28
60240;BME280;46102;39.012;-7.064;2023-04-05T00:02:10;98260.00;;;15.65;25.33
60240;BME280;46102;39.012;-7.064;2023-04-05T00:04:13;98269.47;;;15.64;25.33
60240;BME280;46102;39.012;-7.064;2023-04-05T00:06:13;98276.59;;;15.65;25.47
60240;BME280;46102;39.012;-7.064;2023-04-05T00:08:15;98265.47;;;15.61;25.27
60240;BME280;46102;39.012;-7.064;2023-04-05T00:10:26;98268.59;;;15.59;25.34
60240;BME280;46102;39.012;-7.064;2023-04-05T00:12:27;98270.00;;;15.69;25.17
60240;BME280;46102;39.012;-7.064;2023-04-05T00:14:27;98275.00;;;15.64;25.35
60240;BME280;46102;39.012;-7.064;2023-04-05T00:16:28;98267.34;;;15.57;25.31
60240;BME280;46102;39.012;-7.064;2023-04-05T00:18:29;98269.81;;;15.62;25.33
60240;BME280;46102;39.012;-7.064;2023-04-05T00:20:33;98264.66;;;15.60;25.22
60240;BME280;46102;39.012;-7.064;2023-04-05T00:22:36;98266.16;;;15.58;25.36
60240;BME280;46102;39.012;-7.064;2023-04-05T00:24:37;98269.22;;;15.53;25.40
60240;BME280;46102;39.012;-7.064;2023-04-05T00:26:41;98263.59;;;15.49;25.41
60240;BME280;46102;39.012;-7.064;2023-04-05T00:28:43;98273.59;;;15.54;25.51
60240;BME280;46102;39.012;-7.064;2023-04-05T00:30:43;98270.91;;;15.57;25.29
60240;BME280;46102;39.012;-7.064;2023-04-05T00:32:46;98271.97;;;15.53;25.36
60240;BME280;46102;39.012;-7.064;2023-04-05T00:34:46;98281.69;;;15.47;25.46
60240;BME280;46102;39.012;-7.064;2023-04-05T00:36:47;98283.66;;;15.46;25.50
60240;BME280;46102;39.012;-7.064;2023-04-05T00:38:48;98285.97;;;15.44;25.60
60240;BME280;46102;39.012;-7.064;2023-04-05T00:40:49;98274.72;;;15.37;25.65
60240;BME280;46102;39.012;-7.064;2023-04-05T00:42:49;98275.53;;;15.37;25.57
60240;BME280;46102;39.012;-7.064;2023-04-05T00:44:50;98283.75;;;15.34;25.72
60240;BME280;46102;39.012;-7.064;2023-04-05T00:46:50;98279.91;;;15.38;25.51
60240;BME280;46102;39.012;-7.064;2023-04-05T00:48:52;98283.13;;;15.40;25.43
60240;BME280;46102;39.012;-7.064;2023-04-05T00:50:52;98283.03;;;15.37;25.42
60240;BME280;46102;39.012;-7.064;2023-04-05T00:52:53;98286.84;;;15.32;25.47
60240;BME280;46102;39.012;-7.064;2023-04-05T00:54:53;98280.25;;;15.37;25.53
60240;BME280;46102;39.012;-7.064;2023-04-05T00:56:56;98279.91;;;15.38;25.35
60240;BME280;46102;39.012;-7.064;2023-04-05T00:58:57;98278.28;;;15.37;25.47
60240;BME280;46102;39.012;-7.064;2023-04-05T01:03:01;98278.22;;;15.34;25.45
60240;BME280;46102;39.012;-7.064;2023-04-05T01:05:08;98276.25;;;15.34;25.48
60240;BME280;46102;39.012;-7.064;2023-04-05T01:07:16;98284.09;;;15.32;25.55
60240;BME280;46102;39.012;-7.064;2023-04-05T01:09:28;98285.44;;;15.38;25.39
60240;BME280;46102;39.012;-7.064;2023-04-05T01:11:33;98283.38;;;15.35;25.48
60240;BME280;46102;39.012;-7.064;2023-04-05T01:13:34;98283.97;;;15.29;25.71
60240;BME280;46102;39.012;-7.064;2023-04-05T01:15:35;98283.97;;;15.29;25.61
60240;BME280;46102;39.012;-7.064;2023-04-05T01:17:36;98279.19;;;15.26;25.65
60240;BME280;46102;39.012;-7.064;2023-04-05T01:19:38;98277.47;;;15.21;25.85
60240;BME280;46102;39.012;-7.064;2023-04-05T01:22:04;98287.56;;;15.13;25.80
60240;BME280;46102;39.012;-7.064;2023-04-05T01:26:45;98295.84;;;15.13;25.90
60240;BME280;46102;39.012;-7.064;2023-04-05T01:31:07;98298.44;;;14.94;25.97
60240;BME280;46102;39.012;-7.064;2023-04-05T01:35:24;98297.81;;;14.85;25.91
60240;BME280;46102;39.012;-7.064;2023-04-05T01:37:29;98298.16;;;14.83;25.99
60240;BME280;46102;39.012;-7.064;2023-04-05T01:39:32;98299.50;;;14.89;25.89
60240;BME280;46102;39.012;-7.064;2023-04-05T01:41:34;98302.53;;;14.84;26.34
60240;BME280;46102;39.012;-7.064;2023-04-05T01:43:35;98302.31;;;14.77;26.30
60240;BME280;46102;39.012;-7.064;2023-04-05T01:45:35;98303.59;;;14.80;26.29
60240;BME280;46102;39.012;-7.064;2023-04-05T01:47:37;98302.69;;;14.75;26.16
60240;BME280;46102;39.012;-7.064;2023-04-05T01:49:38;98312.56;;;14.76;26.15
60240;BME280;46102;39.012;-7.064;2023-04-05T01:51:39;98307.16;;;14.68;26.29
60240;BME280;46102;39.012;-7.064;2023-04-05T01:53:41;98304.88;;;14.70;26.11
60240;BME280;46102;39.012;-7.064;2023-04-05T01:55:41;98304.66;;;14.63;26.26
60240;BME280;46102;39.012;-7.064;2023-04-05T01:57:42;98304.47;;;14.55;26.21
60240;BME280;46102;39.012;-7.064;2023-04-05T01:59:43;98304.22;;;14.61;26.24
60240;BME280;46102;39.012;-7.064;2023-04-05T02:01:43;98304.22;;;14.61;26.19
60240;BME280;46102;39.012;-7.064;2023-04-05T02:03:44;98303.28;;;14.56;25.99
60240;BME280;46102;39.012;-7.064;2023-04-05T02:05:45;98306.97;;;14.61;26.02
60240;BME280;46102;39.012;-7.064;2023-04-05T02:07:45;98302.72;;;14.51;26.12
60240;BME280;46102;39.012;-7.064;2023-04-05T02:09:46;98308.69;;;14.53;26.10
60240;BME280;46102;39.012;-7.064;2023-04-05T02:11:46;98313.31;;;14.49;26.27
60240;BME280;46102;39.012;-7.064;2023-04-05T02:13:47;98309.16;;;14.43;26.19
60240;BME280;46102;39.012;-7.064;2023-04-05T02:15:48;98308.25;;;14.38;26.33
60240;BME280;46102;39.012;-7.064;2023-04-05T02:17:49;98307.91;;;14.40;26.50
60240;BME280;46102;39.012;-7.064;2023-04-05T02:19:53;98310.72;;;14.28;26.79
60240;BME280;46102;39.012;-7.064;2023-04-05T02:22:01;98308.06;;;14.19;26.82
60240;BME280;46102;39.012;-7.064;2023-04-05T02:24:02;98311.16;;;14.18;26.96
60240;BME280;46102;39.012;-7.064;2023-04-05T02:26:03;98302.44;;;14.15;26.95
60240;BME280;46102;39.012;-7.064;2023-04-05T02:28:04;98306.94;;;14.08;27.17
60240;BME280;46102;39.012;-7.064;2023-04-05T02:30:05;98312.34;;;14.04;27.04
60240;BME280;46102;39.012;-7.064;2023-04-05T02:32:05;98310.16;;;13.98;27.23
60240;BME280;46102;39.012;-7.064;2023-04-05T02:34:06;98311.44;;;13.88;27.19
60240;BME280;46102;39.012;-7.064;2023-04-05T02:36:09;98311.44;;;13.88;27.10
60240;BME280;46102;39.012;-7.064;2023-04-05T02:38:10;98310.25;;;13.89;27.00
60240;BME280;46102;39.012;-7.064;2023-04-05T02:40:11;98314.06;;;13.84;26.99
60240;BME280;46102;39.012;-7.064;2023-04-05T02:42:14;98317.50;;;13.81;27.02
60240;BME280;46102;39.012;-7.064;2023-04-05T02:44:15;98315.88;;;13.80;26.88
60240;BME280;46102;39.012;-7.064;2023-04-05T02:46:15;98321.88;;;13.82;26.75
60240;BME280;46102;39.012;-7.064;2023-04-05T02:48:17;98327.38;;;13.82;26.68
60240;BME280;46102;39.012;-7.064;2023-04-05T02:50:18;98331.28;;;13.81;26.46
60240;BME280;46102;39.012;-7.064;2023-04-05T02:52:20;98335.31;;;13.84;26.62
60240;BME280;46102;39.012;-7.064;2023-04-05T02:54:22;98328.31;;;13.86;26.19
60240;BME280;46102;39.012;-7.064;2023-04-05T02:56:25;98327.16;;;13.87;26.11
60240;BME280;46102;39.012;-7.064;2023-04-05T02:58:27;98330.81;;;13.91;25.75
60240;BME280;46102;39.012;-7.064;2023-04-05T03:00:28;98318.41;;;13.98;25.50
60240;BME280;46102;39.012;-7.064;2023-04-05T03:02:31;98318.09;;;13.99;25.30
60240;BME280;46102;39.012;-7.064;2023-04-05T03:04:33;98324.88;;;14.02;25.02
60240;BME280;46102;39.012;-7.064;2023-04-05T03:06:36;98322.44;;;14.00;25.02
60240;BME280;46102;39.012;-7.064;2023-04-05T03:08:38;98323.50;;;14.08;24.76
60240;BME280;46102;39.012;-7.064;2023-04-05T03:10:46;98323.50;;;14.08;24.75
60240;BME280;46102;39.012;-7.064;2023-04-05T03:12:49;98310.03;;;14.06;24.50
60240;BME280;46102;39.012;-7.064;2023-04-05T03:14:54;98312.09;;;14.09;24.40
60240;BME280;46102;39.012;-7.064;2023-04-05T03:16:57;98317.03;;;14.16;24.46
60240;BME280;46102;39.012;-7.064;2023-04-05T03:19:06;98318.19;;;14.15;24.52
60240;BME280;46102;39.012;-7.064;2023-04-05T03:21:10;98317.97;;;14.08;24.40
60240;BME280;46102;39.012;-7.064;2023-04-05T03:23:17;98326.34;;;14.11;24.14
60240;BME280;46102;39.012;-7.064;2023-04-05T03:25:20;98315.09;;;14.04;24.02
60240;BME280;46102;39.012;-7.064;2023-04-05T03:27:22;98309.81;;;13.99;24.22
60240;BME280;46102;39.012;-7.064;2023-04-05T03:29:32;98317.28;;;13.99;24.05
60240;BME280;46102;39.012;-7.064;2023-04-05T03:31:40;98325.44;;;13.95;24.03
60240;BME280;46102;39.012;-7.064;2023-04-05T03:33:42;98316.25;;;13.91;23.92
60240;BME280;46102;39.012;-7.064;2023-04-05T03:35:44;98330.25;;;13.86;23.95
60240;BME280;46102;39.012;-7.064;2023-04-05T03:37:45;98327.84;;;13.84;24.20
60240;BME280;46102;39.012;-7.064;2023-04-05T03:39:46;98323.03;;;13.81;24.26
60240;BME280;46102;39.012;-7.064;2023-04-05T03:41:48;98318.41;;;13.73;24.50
60240;BME280;46102;39.012;-7.064;2023-04-05T03:43:49;98327.84;;;13.72;24.21
60240;BME280;46102;39.012;-7.064;2023-04-05T03:45:50;98324.63;;;13.70;24.36
60240;BME280;46102;39.012;-7.064;2023-04-05T03:47:50;98330.38;;;13.65;24.21
60240;BME280;46102;39.012;-7.064;2023-04-05T03:49:51;98333.00;;;13.61;24.24
60240;BME280;46102;39.012;-7.064;2023-04-05T03:51:51;98329.91;;;13.63;24.06
60240;BME280;46102;39.012;-7.064;2023-04-05T03:53:52;98331.03;;;13.62;24.21
60240;BME280;46102;39.012;-7.064;2023-04-05T03:55:56;98337.38;;;13.62;24.13
60240;BME280;46102;39.012;-7.064;2023-04-05T03:58:14;98324.41;;;13.63;24.28
60240;BME280;46102;39.012;-7.064;2023-04-05T04:00:15;98323.00;;;13.57;24.60
60240;BME280;46102;39.012;-7.064;2023-04-05T04:02:16;98325.38;;;13.46;24.90
60240;BME280;46102;39.012;-7.064;2023-04-05T04:04:17;98324.81;;;13.40;24.93
60240;BME280;46102;39.012;-7.064;2023-04-05T04:06:20;98324.34;;;13.38;25.01
60240;BME280;46102;39.012;-7.064;2023-04-05T04:08:22;98322.72;;;13.37;24.63
60240;BME280;46102;39.012;-7.064;2023-04-05T04:10:22;98324.44;;;13.29;24.97
60240;BME280;46102;39.012;-7.064;2023-04-05T04:12:27;98334.03;;;13.23;24.95
60240;BME280;46102;39.012;-7.064;2023-04-05T04:14:35;98328.28;;;13.16;25.00
60240;BME280;46102;39.012;-7.064;2023-04-05T04:17:01;98327.34;;;13.12;24.92
60240;BME280;46102;39.012;-7.064;2023-04-05T04:19:20;98332.72;;;13.08;24.92
60240;BME280;46102;39.012;-7.064;2023-04-05T04:21:36;98328.34;;;13.07;24.75
60240;BME280;46102;39.012;-7.064;2023-04-05T04:23:44;98331.31;;;13.02;24.79
60240;BME280;46102;39.012;-7.064;2023-04-05T04:26:04;98328.34;;;13.07;24.68
60240;BME280;46102;39.012;-7.064;2023-04-05T04:28:19;98337.78;;;13.06;24.53
60240;BME280;46102;39.012;-7.064;2023-04-05T04:30:33;98330.88;;;13.12;23.75
60240;BME280;46102;39.012;-7.064;2023-04-05T04:32:47;98330.44;;;13.10;23.64
60240;BME280;46102;39.012;-7.064;2023-04-05T04:35:18;98322.28;;;13.14;23.84
60240;BME280;46102;39.012;-7.064;2023-04-05T04:37:39;98330.09;;;13.12;23.70
60240;BME280;46102;39.012;-7.064;2023-04-05T04:40:06;98322.28;;;13.14;23.39
60240;BME280;46102;39.012;-7.064;2023-04-05T04:42:33;98327.69;;;13.10;23.63
60240;BME280;46102;39.012;-7.064;2023-04-05T04:45:04;98343.59;;;13.05;23.63
60240;BME280;46102;39.012;-7.064;2023-04-05T04:47:24;98339.81;;;12.97;23.71
60240;BME280;46102;39.012;-7.064;2023-04-05T04:49:37;98342.88;;;12.96;24.08
60240;BME280;46102;39.012;-7.064;2023-04-05T04:51:38;98344.84;;;12.95;23.71
60240;BME280;46102;39.012;-7.064;2023-04-05T04:53:38;98351.94;;;12.96;23.72
60240;BME280;46102;39.012;-7.064;2023-04-05T04:55:39;98342.56;;;12.97;23.95
60240;BME280;46102;39.012;-7.064;2023-04-05T04:57:42;98347.94;;;12.94;23.90
60240;BME280;46102;39.012;-7.064;2023-04-05T04:59:43;98353.75;;;12.92;23.94
60240;BME280;46102;39.012;-7.064;2023-04-05T05:01:44;98344.97;;;12.99;23.63
60240;BME280;46102;39.012;-7.064;2023-04-05T05:03:44;98334.63;;;12.96;23.53
60240;BME280;46102;39.012;-7.064;2023-04-05T05:05:45;98337.25;;;12.92;23.76
60240;BME280;46102;39.012;-7.064;2023-04-05T05:07:47;98329.19;;;12.87;23.62
60240;BME280;46102;39.012;-7.064;2023-04-05T05:09:48;98327.94;;;12.84;23.59
60240;BME280;46102;39.012;-7.064;2023-04-05T05:11:51;98334.31;;;12.76;23.71
60240;BME280;46102;39.012;-7.064;2023-04-05T05:13:52;98338.44;;;12.70;23.81
60240;BME280;46102;39.012;-7.064;2023-04-05T05:15:55;98347.00;;;12.68;23.98
60240;BME280;46102;39.012;-7.064;2023-04-05T05:17:59;98350.44;;;12.65;23.70
60240;BME280;46102;39.012;-7.064;2023-04-05T05:20:00;98349.03;;;12.59;23.61
60240;BME280;46102;39.012;-7.064;2023-04-05T05:22:00;98355.00;;;12.61;23.46
60240;BME280;46102;39.012;-7.064;2023-04-05T05:24:01;98351.09;;;12.62;23.61
60240;BME280;46102;39.012;-7.064;2023-04-05T05:26:01;98353.31;;;12.69;23.50
60240;BME280;46102;39.012;-7.064;2023-04-05T05:28:02;98358.00;;;12.68;23.57
60240;BME280;46102;39.012;-7.064;2023-04-05T05:30:03;98353.31;;;12.69;23.49
60240;BME280;46102;39.012;-7.064;2023-04-05T05:32:04;98354.78;;;12.66;23.35
60240;BME280;46102;39.012;-7.064;2023-04-05T05:34:05;98353.38;;;12.60;23.58
60240;BME280;46102;39.012;-7.064;2023-04-05T05:36:06;98353.56;;;12.55;23.68
60240;BME280;46102;39.012;-7.064;2023-04-05T05:38:07;98359.94;;;12.47;24.02
60240;BME280;46102;39.012;-7.064;2023-04-05T05:40:08;98364.97;;;12.45;24.18
60240;BME280;46102;39.012;-7.064;2023-04-05T05:42:09;98365.78;;;12.45;24.13
60240;BME280;46102;39.012;-7.064;2023-04-05T05:44:10;98367.53;;;12.50;24.01
60240;BME280;46102;39.012;-7.064;2023-04-05T05:46:10;98367.28;;;12.43;23.85
60240;BME280;46102;39.012;-7.064;2023-04-05T05:48:11;98357.91;;;12.35;24.11
60240;BME280;46102;39.012;-7.064;2023-04-05T05:50:11;98359.88;;;12.35;23.92
60240;BME280;46102;39.012;-7.064;2023-04-05T05:52:12;98362.66;;;12.26;23.94
60240;BME280;46102;39.012;-7.064;2023-04-05T05:54:13;98365.09;;;12.27;24.36
60240;BME280;46102;39.012;-7.064;2023-04-05T05:56:13;98379.03;;;12.22;24.37
60240;BME280;46102;39.012;-7.064;2023-04-05T05:58:14;98371.88;;;12.30;24.33
60240;BME280;46102;39.012;-7.064;2023-04-05T06:00:15;98372.19;;;12.28;24.37
60240;BME280;46102;39.012;-7.064;2023-04-05T06:02:16;98374.03;;;12.16;24.36
60240;BME280;46102;39.012;-7.064;2023-04-05T06:04:17;98376.66;;;12.12;24.48
60240;BME280;46102;39.012;-7.064;2023-04-05T06:06:18;98374.19;;;12.19;24.31
60240;BME280;46102;39.012;-7.064;2023-04-05T06:08:20;98368.88;;;12.14;24.07
60240;BME280;46102;39.012;-7.064;2023-04-05T06:10:20;98366.78;;;12.11;24.21
60240;BME280;46102;39.012;-7.064;2023-04-05T06:12:21;98364.22;;;12.06;23.94
60240;BME280;46102;39.012;-7.064;2023-04-05T06:14:22;98359.53;;;12.06;24.13
60240;BME280;46102;39.012;-7.064;2023-04-05T06:16:22;98362.91;;;12.12;24.12
60240;BME280;46102;39.012;-7.064;2023-04-05T06:18:23;98371.63;;;12.14;23.96
60240;BME280;46102;39.012;-7.064;2023-04-05T06:20:23;98380.50;;;12.20;23.52
60240;BME280;46102;39.012;-7.064;2023-04-05T06:22:24;98375.16;;;12.23;23.13
60240;BME280;46102;39.012;-7.064;2023-04-05T06:24:25;98375.41;;;12.31;23.32
60240;BME280;46102;39.012;-7.064;2023-04-05T06:26:26;98376.97;;;12.40;23.01
60240;BME280;46102;39.012;-7.064;2023-04-05T06:28:29;98380.72;;;12.36;23.17
60240;BME280;46102;39.012;-7.064;2023-04-05T06:30:30;98385.22;;;12.40;23.04
60240;BME280;46102;39.012;-7.064;2023-04-05T06:32:31;98384.31;;;12.36;23.16
60240;BME280;46102;39.012;-7.064;2023-04-05T06:34:31;98387.38;;;12.35;23.27
60240;BME280;46102;39.012;-7.064;2023-04-05T06:36:32;98389.50;;;12.29;23.20
60240;BME280;46102;39.012;-7.064;2023-04-05T06:38:33;98380.06;;;12.39;23.13
60240;BME280;46102;39.012;-7.064;2023-04-05T06:40:33;98388.44;;;12.42;23.11
60240;BME280;46102;39.012;-7.064;2023-04-05T06:42:34;98383.31;;;12.41;22.93
60240;BME280;46102;39.012;-7.064;2023-04-05T06:44:38;98377.53;;;12.55;22.73
60240;BME280;46102;39.012;-7.064;2023-04-05T06:46:39;98387.56;;;12.59;22.27
60240;BME280;46102;39.012;-7.064;2023-04-05T06:48:39;98385.28;;;12.61;22.32
60240;BME280;46102;39.012;-7.064;2023-04-05T06:50:40;98378.63;;;12.62;22.25
60240;BME280;46102;39.012;-7.064;2023-04-05T06:52:40;98376.94;;;12.70;22.17
60240;BME280;46102;39.012;-7.064;2023-04-05T06:54:41;98380.63;;;12.74;22.39
60240;BME280;46102;39.012;-7.064;2023-04-05T06:56:42;98386.13;;;12.74;22.53
60240;BME280;46102;39.012;-7.064;2023-04-05T06:58:43;98383.66;;;12.81;22.36
60240;BME280;46102;39.012;-7.064;2023-04-05T07:00:43;98391.38;;;12.88;28.64
60240;BME280;46102;39.012;-7.064;2023-04-05T07:02:44;98395.06;;;13.13;28.83
60240;BME280;46102;39.012;-7.064;2023-04-05T07:04:44;98388.09;;;13.49;26.23
60240;BME280;46102;39.012;-7.064;2023-04-05T07:06:46;98390.78;;;13.70;25.10
60240;BME280;46102;39.012;-7.064;2023-04-05T07:08:46;98384.00;;;13.80;23.77
60240;BME280;46102;39.012;-7.064;2023-04-05T07:10:47;98385.03;;;13.75;22.22
60240;BME280;46102;39.012;-7.064;2023-04-05T07:12:48;98392.75;;;13.82;24.86
60240;BME280;46102;39.012;-7.064;2023-04-05T07:14:49;98400.91;;;13.90;25.35
60240;BME280;46102;39.012;-7.064;2023-04-05T07:16:50;98404.59;;;14.07;24.78
60240;BME280;46102;39.012;-7.064;2023-04-05T07:18:51;98404.16;;;14.17;24.37
60240;BME280;46102;39.012;-7.064;2023-04-05T07:20:54;98400.03;;;14.35;26.57
60240;BME280;46102;39.012;-7.064;2023-04-05T07:22:59;98402.88;;;14.51;22.88
60240;BME280;46102;39.012;-7.064;2023-04-05T07:24:59;98399.31;;;14.63;23.80
60240;BME280;46102;39.012;-7.064;2023-04-05T07:27:00;98400.13;;;14.76;25.10
60240;BME280;46102;39.012;-7.064;2023-04-05T07:29:03;98404.19;;;14.94;24.23
60240;BME280;46102;39.012;-7.064;2023-04-05T07:31:04;98407.75;;;15.07;22.97
60240;BME280;46102;39.012;-7.064;2023-04-05T07:33:06;98407.69;;;15.19;23.07
60240;BME280;46102;39.012;-7.064;2023-04-05T07:35:06;98412.47;;;15.35;23.16
60240;BME280;46102;39.012;-7.064;2023-04-05T07:37:07;98406.44;;;15.45;21.23
60240;BME280;46102;39.012;-7.064;2023-04-05T07:39:08;98402.44;;;15.43;21.15
60240;BME280;46102;39.012;-7.064;2023-04-05T07:41:08;98403.31;;;15.47;20.91
60240;BME280;46102;39.012;-7.064;2023-04-05T07:43:09;98408.69;;;15.55;20.65
60240;BME280;46102;39.012;-7.064;2023-04-05T07:45:09;98400.78;;;15.70;20.89
60240;BME280;46102;39.012;-7.064;2023-04-05T07:47:10;98397.00;;;15.90;20.97
60240;BME280;46102;39.012;-7.064;2023-04-05T07:49:11;98399.13;;;16.13;20.67
60240;BME280;46102;39.012;-7.064;2023-04-05T07:51:12;98404.22;;;16.27;20.10
60240;BME280;46102;39.012;-7.064;2023-04-05T07:53:13;98397.94;;;16.30;19.68
60240;BME280;46102;39.012;-7.064;2023-04-05T07:55:13;98403.75;;;16.24;19.56
60240;BME280;46102;39.012;-7.064;2023-04-05T07:57:20;98400.91;;;16.21;20.28
60240;BME280;46102;39.012;-7.064;2023-04-05T07:59:20;98408.66;;;16.31;19.70
60240;BME280;46102;39.012;-7.064;2023-04-05T08:01:23;98404.34;;;16.50;19.76
60240;BME280;46102;39.012;-7.064;2023-04-05T08:03:27;98399.88;;;16.61;19.28
60240;BME280;46102;39.012;-7.064;2023-04-05T08:05:28;98400.56;;;16.74;20.22
60240;BME280;46102;39.012;-7.064;2023-04-05T08:07:28;98407.59;;;16.87;19.65
60240;BME280;46102;39.012;-7.064;2023-04-05T08:09:29;98415.13;;;17.06;19.62
60240;BME280;46102;39.012;-7.064;2023-04-05T08:11:30;98413.38;;;17.17;20.12
60240;BME280;46102;39.012;-7.064;2023-04-05T08:13:31;98412.06;;;17.31;20.06
60240;BME280;46102;39.012;-7.064;2023-04-05T08:15:33;98407.00;;;17.56;19.75
60240;BME280;46102;39.012;-7.064;2023-04-05T08:17:34;98402.91;;;17.88;21.25
60240;BME280;46102;39.012;-7.064;2023-04-05T08:19:34;98392.00;;;17.99;19.87
60240;BME280;46102;39.012;-7.064;2023-04-05T08:21:35;98400.34;;;18.03;19.69
60240;BME280;46102;39.012;-7.064;2023-04-05T08:23:36;98406.09;;;18.14;19.56
60240;BME280;46102;39.012;-7.064;2023-04-05T08:25:36;98402.56;;;18.17;19.47
60240;BME280;46102;39.012;-7.064;2023-04-05T08:27:37;98399.19;;;18.27;19.52
60240;BME280;46102;39.012;-7.064;2023-04-05T08:29:37;98404.50;;;18.39;19.21
60240;BME280;46102;39.012;-7.064;2023-04-05T08:31:38;98405.81;;;18.45;19.13
60240;BME280;46102;39.012;-7.064;2023-04-05T08:33:38;98413.28;;;18.68;20.02
60240;BME280;46102;39.012;-7.064;2023-04-05T08:35:39;98412.00;;;18.85;19.26
60240;BME280;46102;39.012;-7.064;2023-04-05T08:37:40;98406.69;;;19.06;18.72
60240;BME280;46102;39.012;-7.064;2023-04-05T08:39:40;98412.47;;;19.21;18.53
60240;BME280;46102;39.012;-7.064;2023-04-05T08:41:44;98414.06;;;19.22;17.58
60240;BME280;46102;39.012;-7.064;2023-04-05T08:43:51;98425.22;;;19.25;17.80
60240;BME280;46102;39.012;-7.064;2023-04-05T08:45:55;98417.03;;;19.40;17.94
60240;BME280;46102;39.012;-7.064;2023-04-05T08:47:58;98422.69;;;19.47;18.24
60240;BME280;46102;39.012;-7.064;2023-04-05T08:49:58;98433.56;;;19.59;17.71
60240;BME280;46102;39.012;-7.064;2023-04-05T08:51:59;98430.91;;;19.70;17.75
60240;BME280;46102;39.012;-7.064;2023-04-05T08:54:00;98428.81;;;19.97;17.84
60240;BME280;46102;39.012;-7.064;2023-04-05T08:56:01;98429.03;;;20.18;17.40
60240;BME280;46102;39.012;-7.064;2023-04-05T08:58:02;98421.13;;;20.28;17.41
60240;BME280;46102;39.012;-7.064;2023-04-05T09:00:07;98424.13;;;20.53;17.11
60240;BME280;46102;39.012;-7.064;2023-04-05T09:02:13;98435.91;;;20.84;16.80
60240;BME280;46102;39.012;-7.064;2023-04-05T09:04:21;98425.66;;;20.98;16.60
60240;BME280;46102;39.012;-7.064;2023-04-05T09:06:23;98429.25;;;20.99;16.06
60240;BME280;46102;39.012;-7.064;2023-04-05T09:08:26;98427.66;;;21.05;16.40
60240;BME280;46102;39.012;-7.064;2023-04-05T09:10:26;98438.88;;;21.16;16.44
60240;BME280;46102;39.012;-7.064;2023-04-05T09:12:28;98425.81;;;21.34;16.58
60240;BME280;46102;39.012;-7.064;2023-04-05T09:14:29;98433.09;;;21.57;16.45
60240;BME280;46102;39.012;-7.064;2023-04-05T09:16:34;98443.09;;;21.65;16.36
60240;BME280;46102;39.012;-7.064;2023-04-05T09:18:36;98445.94;;;21.83;16.43
60240;BME280;46102;39.012;-7.064;2023-04-05T09:20:37;98442.78;;;21.99;16.29
60240;BME280;46102;39.012;-7.064;2023-04-05T09:22:46;98439.22;;;22.13;16.02
60240;BME280;46102;39.012;-7.064;2023-04-05T09:24:47;98445.25;;;22.33;15.57
60240;BME280;46102;39.012;-7.064;2023-04-05T09:27:00;98444.03;;;22.27;15.24
60240;BME280;46102;39.012;-7.064;2023-04-05T09:29:02;98440.03;;;22.31;15.89
60240;BME280;46102;39.012;-7.064;2023-04-05T09:31:03;98439.25;;;22.27;16.11
60240;BME280;46102;39.012;-7.064;2023-04-05T09:33:06;98440.44;;;22.26;15.49
60240;BME280;46102;39.012;-7.064;2023-04-05T09:35:06;98442.44;;;22.22;15.43
60240;BME280;46102;39.012;-7.064;2023-04-05T09:37:15;98448.41;;;22.17;15.95
60240;BME280;46102;39.012;-7.064;2023-04-05T09:39:16;98446.06;;;22.22;15.83
60240;BME280;46102;39.012;-7.064;2023-04-05T09:41:21;98446.44;;;22.35;16.05
60240;BME280;46102;39.012;-7.064;2023-04-05T09:43:40;98446.44;;;22.42;15.67
60240;BME280;46102;39.012;-7.064;2023-04-05T09:45:41;98454.41;;;22.69;15.82
60240;BME280;46102;39.012;-7.064;2023-04-05T09:47:42;98443.59;;;22.89;16.07
60240;BME280;46102;39.012;-7.064;2023-04-05T09:49:44;98447.59;;;23.13;15.92
60240;BME280;46102;39.012;-7.064;2023-04-05T09:51:45;98443.94;;;23.31;15.67
60240;BME280;46102;39.012;-7.064;2023-04-05T09:53:57;98443.03;;;23.48;15.34
60240;BME280;46102;39.012;-7.064;2023-04-05T09:56:07;98437.47;;;23.44;15.73
60240;BME280;46102;39.012;-7.064;2023-04-05T09:58:20;98437.06;;;23.46;15.88
60240;BME280;46102;39.012;-7.064;2023-04-05T10:00:21;98437.78;;;23.64;16.10
60240;BME280;46102;39.012;-7.064;2023-04-05T10:02:22;98445.69;;;23.87;15.54
60240;BME280;46102;39.012;-7.064;2023-04-05T10:04:23;98439.69;;;23.85;15.27
60240;BME280;46102;39.012;-7.064;2023-04-05T10:06:27;98439.25;;;23.94;15.46
60240;BME280;46102;39.012;-7.064;2023-04-05T10:08:33;98441.94;;;24.08;15.83
60240;BME280;46102;39.012;-7.064;2023-04-05T10:10:35;98446.59;;;24.33;15.38
60240;BME280;46102;39.012;-7.064;2023-04-05T10:12:38;98442.16;;;24.36;15.63
60240;BME280;46102;39.012;-7.064;2023-04-05T10:14:40;98439.25;;;24.46;14.90
60240;BME280;46102;39.012;-7.064;2023-04-05T10:16:51;98436.44;;;24.54;15.15
60240;BME280;46102;39.012;-7.064;2023-04-05T10:18:55;98437.50;;;24.67;15.12
60240;BME280;46102;39.012;-7.064;2023-04-05T10:20:56;98440.22;;;24.78;15.25
60240;BME280;46102;39.012;-7.064;2023-04-05T10:23:06;98432.78;;;25.02;15.29
60240;BME280;46102;39.012;-7.064;2023-04-05T10:25:12;98434.56;;;25.23;15.00
60240;BME280;46102;39.012;-7.064;2023-04-05T10:27:17;98435.16;;;25.41;15.35
60240;BME280;46102;39.012;-7.064;2023-04-05T10:29:24;98435.91;;;25.45;15.35
60240;BME280;46102;39.012;-7.064;2023-04-05T10:31:31;98424.53;;;25.56;15.03
60240;BME280;46102;39.012;-7.064;2023-04-05T10:33:44;98428.38;;;25.69;15.06
60240;BME280;46102;39.012;-7.064;2023-04-05T10:40:19;98426.28;;;25.73;15.12
60240;BME280;46102;39.012;-7.064;2023-04-05T10:42:29;98429.44;;;25.79;15.18
60240;BME280;46102;39.012;-7.064;2023-04-05T10:44:33;98422.59;;;25.80;15.32
60240;BME280;46102;39.012;-7.064;2023-04-05T10:46:35;98422.59;;;25.80;14.56
60240;BME280;46102;39.012;-7.064;2023-04-05T10:48:42;98422.81;;;25.96;14.54
60240;BME280;46102;39.012;-7.064;2023-04-05T10:50:44;98417.81;;;26.08;13.96
60240;BME280;46102;39.012;-7.064;2023-04-05T10:52:46;98417.22;;;26.20;14.32
60240;BME280;46102;39.012;-7.064;2023-04-05T10:54:47;98407.34;;;26.35;13.91
60240;BME280;46102;39.012;-7.064;2023-04-05T10:56:48;98409.47;;;26.51;13.86